sensor_id;sensor_type;location;lat;lon;timestamp;pressure;altitude;pressure_sealevel;temperature;humidity
15263;BME280;7733;51.554;13.590;2023-06-01T00:01:52;100750.06;;;16.36;57.16
15263;BME280;7733;51.554;13.590;2023-06-01T00:04:18;100750.47;;;17.05;54.31
15263;BME280;7733;51.554;13.590;2023-06-01T00:06:44;100748.72;;;17.28;53.15
15263;BME280;7733;51.554;13.590;2023-06-01T00:09:10;100748.28;;;17.16;53.64
15263;BME280;7733;51.554;13.590;2023-06-01T00:11:36;100749.16;;;17.16;53.49
15263;BME280;7733;51.554;13.590;2023-06-01T00:14:03;100750.00;;;17.42;52.13
15263;BME280;7733;51.554;13.590;2023-06-01T00:16:29;100735.66;;;17.47;51.78
15263;BME280;7733;51.554;13.590;2023-06-01T00:18:56;100746.28;;;17.47;51.68
15263;BME280;7733;51.554;13.590;2023-06-01T00:21:23;100749.66;;;17.27;52.45
15263;BME280;7733;51.554;13.590;2023-06-01T00:23:49;100741.91;;;17.46;51.63
15263;BME280;7733;51.554;13.590;2023-06-01T00:26:15;100742.00;;;17.43;51.50
15263;BME280;7733;51.554;13.590;2023-06-01T00:28:41;100741.78;;;17.49;51.04
15263;BME280;7733;51.554;13.590;2023-06-01T00:31:07;100739.25;;;17.46;51.42
15263;BME280;7733;51.554;13.590;2023-06-01T00:33:33;100737.44;;;17.47;51.09
15263;BME280;7733;51.554;13.590;2023-06-01T00:35:59;100740.28;;;17.17;52.39
15263;BME280;7733;51.554;13.590;2023-06-01T00:38:25;100743.16;;;17.11;51.92
15263;BME280;7733;51.554;13.590;2023-06-01T00:40:50;100734.28;;;17.12;52.26
15263;BME280;7733;51.554;13.590;2023-06-01T00:43:17;100744.47;;;17.24;51.74
15263;BME280;7733;51.554;13.590;2023-06-01T00:45:44;100735.53;;;17.02;54.49
15263;BME280;7733;51.554;13.590;2023-06-01T00:48:11;100742.16;;;16.89;55.15
15263;BME280;7733;51.554;13.590;2023-06-01T00:50:38;100746.78;;;16.84;55.65
15263;BME280;7733;51.554;13.590;2023-06-01T00:53:12;100731.06;;;16.78;55.73
15263;BME280;7733;51.554;13.590;2023-06-01T00:55:40;100738.59;;;16.90;54.95
15263;BME280;7733;51.554;13.590;2023-06-01T00:58:07;100733.38;;;16.34;58.00
15263;BME280;7733;51.554;13.590;2023-06-01T01:00:33;100740.59;;;15.71;60.99
15263;BME280;7733;51.554;13.590;2023-06-01T01:03:00;100739.16;;;15.60;61.20
15263;BME280;7733;51.554;13.590;2023-06-01T01:05:33;100740.41;;;14.81;63.39
15263;BME280;7733;51.554;13.590;2023-06-01T01:08:56;100734.63;;;15.00;62.54
15263;BME280;7733;51.554;13.590;2023-06-01T01:11:30;100757.09;;;14.83;61.06
15263;BME280;7733;51.554;13.590;2023-06-01T01:14:20;100744.53;;;14.57;61.74
15263;BME280;7733;51.554;13.590;2023-06-01T01:17:07;100746.78;;;15.07;59.04
15263;BME280;7733;51.554;13.590;2023-06-01T01:30:46;100741.53;;;15.98;54.74
15263;BME280;7733;51.554;13.590;2023-06-01T01:33:13;100735.56;;;16.20;53.71
15263;BME280;7733;51.554;13.590;2023-06-01T01:35:41;100738.72;;;16.32;53.14
15263;BME280;7733;51.554;13.590;2023-06-01T01:38:07;100733.41;;;16.32;53.44
15263;BME280;7733;51.554;13.590;2023-06-01T01:40:33;100733.75;;;16.22;54.15
15263;BME280;7733;51.554;13.590;2023-06-01T01:43:00;100740.91;;;15.90;56.41
15263;BME280;7733;51.554;13.590;2023-06-01T01:45:26;100742.03;;;15.81;56.97
15263;BME280;7733;51.554;13.590;2023-06-01T01:48:44;100734.31;;;15.44;58.41
15263;BME280;7733;51.554;13.590;2023-06-01T01:51:19;100734.03;;;15.23;58.82
15263;BME280;7733;51.554;13.590;2023-06-01T01:53:50;100731.06;;;14.68;61.37
15263;BME280;7733;51.554;13.590;2023-06-01T01:56:18;100724.06;;;15.65;57.96
15263;BME280;7733;51.554;13.590;2023-06-01T01:58:47;100732.63;;;15.42;59.29
15263;BME280;7733;51.554;13.590;2023-06-01T02:01:13;100731.38;;;15.53;59.58
15263;BME280;7733;51.554;13.590;2023-06-01T02:03:40;100727.19;;;15.46;59.73
15263;BME280;7733;51.554;13.590;2023-06-01T02:06:06;100736.69;;;15.23;60.44
15263;BME280;7733;51.554;13.590;2023-06-01T02:08:32;100719.66;;;15.00;60.57
15263;BME280;7733;51.554;13.590;2023-06-01T02:10:57;100725.44;;;14.82;61.27
15263;BME280;7733;51.554;13.590;2023-06-01T02:13:23;100728.06;;;14.48;61.68
15263;BME280;7733;51.554;13.590;2023-06-01T02:15:49;100722.25;;;14.69;61.03
15263;BME280;7733;51.554;13.590;2023-06-01T02:18:14;100722.13;;;14.37;61.68
15263;BME280;7733;51.554;13.590;2023-06-01T02:20:44;100725.59;;;14.76;59.81
15263;BME280;7733;51.554;13.590;2023-06-01T02:23:11;100715.50;;;14.91;59.14
15263;BME280;7733;51.554;13.590;2023-06-01T02:25:36;100713.97;;;15.15;57.75
15263;BME280;7733;51.554;13.590;2023-06-01T02:28:02;100716.31;;;14.94;57.79
15263;BME280;7733;51.554;13.590;2023-06-01T02:30:28;100716.22;;;15.60;56.07
15263;BME280;7733;51.554;13.590;2023-06-01T02:32:54;100705.97;;;14.52;59.97
15263;BME280;7733;51.554;13.590;2023-06-01T02:35:20;100708.72;;;14.47;59.78
15263;BME280;7733;51.554;13.590;2023-06-01T02:37:46;100714.47;;;14.63;59.83
15263;BME280;7733;51.554;13.590;2023-06-01T02:40:11;100711.94;;;14.93;58.69
15263;BME280;7733;51.554;13.590;2023-06-01T02:42:38;100703.94;;;14.96;57.89
15263;BME280;7733;51.554;13.590;2023-06-01T02:45:06;100713.25;;;15.40;56.40
15263;BME280;7733;51.554;13.590;2023-06-01T02:47:32;100713.16;;;15.44;56.75
15263;BME280;7733;51.554;13.590;2023-06-01T02:49:58;100716.47;;;15.20;58.16
15263;BME280;7733;51.554;13.590;2023-06-01T02:52:24;100716.22;;;15.29;57.94
15263;BME280;7733;51.554;13.590;2023-06-01T02:54:50;100712.75;;;15.27;57.54
15263;BME280;7733;51.554;13.590;2023-06-01T02:57:15;100722.72;;;15.48;56.66
15263;BME280;7733;51.554;13.590;2023-06-01T02:59:41;100715.75;;;14.81;58.32
15263;BME280;7733;51.554;13.590;2023-06-01T03:02:07;100714.34;;;14.68;59.44
15263;BME280;7733;51.554;13.590;2023-06-01T03:04:32;100703.94;;;14.63;59.04
15263;BME280;7733;51.554;13.590;2023-06-01T03:06:59;100716.19;;;14.98;57.87
15263;BME280;7733;51.554;13.590;2023-06-01T03:09:26;100710.22;;;14.91;58.02
15263;BME280;7733;51.554;13.590;2023-06-01T03:11:52;100710.31;;;13.77;62.17
15263;BME280;7733;51.554;13.590;2023-06-01T03:14:18;100706.13;;;14.46;60.08
15263;BME280;7733;51.554;13.590;2023-06-01T03:16:44;100709.22;;;14.63;59.22
15263;BME280;7733;51.554;13.590;2023-06-01T03:19:09;100702.69;;;14.76;58.79
15263;BME280;7733;51.554;13.590;2023-06-01T03:21:35;100706.84;;;15.17;57.19
15263;BME280;7733;51.554;13.590;2023-06-01T03:24:01;100711.59;;;14.72;59.24
15263;BME280;7733;51.554;13.590;2023-06-01T03:26:27;100712.59;;;14.68;59.59
15263;BME280;7733;51.554;13.590;2023-06-01T03:28:53;100713.56;;;13.90;62.65
15263;BME280;7733;51.554;13.590;2023-06-01T03:31:21;100711.06;;;14.21;61.34
15263;BME280;7733;51.554;13.590;2023-06-01T03:33:47;100713.88;;;14.52;60.17
15263;BME280;7733;51.554;13.590;2023-06-01T03:36:13;100712.72;;;14.64;59.59
15263;BME280;7733;51.554;13.590;2023-06-01T03:38:39;100725.09;;;14.24;61.35
15263;BME280;7733;51.554;13.590;2023-06-01T03:41:05;100717.19;;;14.94;58.66
15263;BME280;7733;51.554;13.590;2023-06-01T03:43:31;100718.47;;;15.12;58.47
15263;BME280;7733;51.554;13.590;2023-06-01T03:45:56;100729.75;;;15.17;58.87
15263;BME280;7733;51.554;13.590;2023-06-01T03:48:22;100721.72;;;15.21;58.86
15263;BME280;7733;51.554;13.590;2023-06-01T03:50:48;100727.56;;;15.02;59.16
15263;BME280;7733;51.554;13.590;2023-06-01T03:53:14;100726.84;;;15.28;57.90
15263;BME280;7733;51.554;13.590;2023-06-01T03:55:40;100724.06;;;15.00;58.71
15263;BME280;7733;51.554;13.590;2023-06-01T03:58:05;100721.50;;;15.29;57.72
15263;BME280;7733;51.554;13.590;2023-06-01T04:00:33;100718.91;;;15.28;57.69
15263;BME280;7733;51.554;13.590;2023-06-01T04:03:00;100716.41;;;15.23;57.72
15263;BME280;7733;51.554;13.590;2023-06-01T04:05:27;100711.41;;;15.43;57.24
15263;BME280;7733;51.554;13.590;2023-06-01T04:07:55;100716.13;;;15.32;57.93
15263;BME280;7733;51.554;13.590;2023-06-01T04:10:21;100719.78;;;15.28;58.17
15263;BME280;7733;51.554;13.590;2023-06-01T04:12:49;100720.28;;;15.10;59.03
15263;BME280;7733;51.554;13.590;2023-06-01T04:15:17;100716.41;;;14.90;60.65
15263;BME280;7733;51.554;13.590;2023-06-01T04:17:44;100713.97;;;15.15;59.39
15263;BME280;7733;51.554;13.590;2023-06-01T04:20:16;100719.72;;;14.65;61.25
15263;BME280;7733;51.554;13.590;2023-06-01T04:22:43;100715.78;;;15.13;60.09
15263;BME280;7733;51.554;13.590;2023-06-01T04:25:11;100721.16;;;15.41;59.11
15263;BME280;7733;51.554;13.590;2023-06-01T04:27:42;100726.13;;;15.21;60.08
15263;BME280;7733;51.554;13.590;2023-06-01T04:30:12;100727.00;;;15.21;60.88
15263;BME280;7733;51.554;13.590;2023-06-01T04:32:39;100724.66;;;15.11;61.76
15263;BME280;7733;51.554;13.590;2023-06-01T04:35:07;100725.09;;;14.94;63.24
15263;BME280;7733;51.554;13.590;2023-06-01T04:37:38;100722.72;;;15.17;62.49
15263;BME280;7733;51.554;13.590;2023-06-01T04:40:09;100728.91;;;15.16;63.10
15263;BME280;7733;51.554;13.590;2023-06-01T04:42:43;100724.84;;;15.36;62.70
15263;BME280;7733;51.554;13.590;2023-06-01T04:45:21;100732.78;;;15.36;63.76
15263;BME280;7733;51.554;13.590;2023-06-01T04:47:47;100732.13;;;15.28;64.33
15263;BME280;7733;51.554;13.590;2023-06-01T04:50:13;100726.78;;;15.29;64.61
15263;BME280;7733;51.554;13.590;2023-06-01T04:52:42;100729.94;;;15.43;65.23
15263;BME280;7733;51.554;13.590;2023-06-01T04:55:09;100720.41;;;15.36;65.54
15263;BME280;7733;51.554;13.590;2023-06-01T04:57:36;100722.63;;;15.20;66.07
15263;BME280;7733;51.554;13.590;2023-06-01T05:00:06;100727.47;;;15.36;65.95
15263;BME280;7733;51.554;13.590;2023-06-01T05:02:42;100709.41;;;15.51;65.23
15263;BME280;7733;51.554;13.590;2023-06-01T05:05:09;100713.56;;;15.62;65.55
15263;BME280;7733;51.554;13.590;2023-06-01T05:07:37;100714.19;;;15.70;65.45
15263;BME280;7733;51.554;13.590;2023-06-01T05:10:10;100711.75;;;15.64;65.98
15263;BME280;7733;51.554;13.590;2023-06-01T05:12:37;100713.38;;;15.68;66.90
15263;BME280;7733;51.554;13.590;2023-06-01T05:15:06;100703.81;;;15.64;67.25
15263;BME280;7733;51.554;13.590;2023-06-01T05:17:33;100716.22;;;15.62;67.01
15263;BME280;7733;51.554;13.590;2023-06-01T05:19:59;100706.41;;;15.93;65.84
15263;BME280;7733;51.554;13.590;2023-06-01T05:22:25;100697.50;;;15.96;66.30
15263;BME280;7733;51.554;13.590;2023-06-01T05:24:51;100692.78;;;15.77;66.41
15263;BME280;7733;51.554;13.590;2023-06-01T05:27:17;100707.75;;;15.78;66.74
15263;BME280;7733;51.554;13.590;2023-06-01T05:29:43;100708.31;;;15.90;67.05
15263;BME280;7733;51.554;13.590;2023-06-01T05:32:09;100701.19;;;15.92;67.43
15263;BME280;7733;51.554;13.590;2023-06-01T05:34:36;100708.13;;;16.24;65.75
15263;BME280;7733;51.554;13.590;2023-06-01T05:37:02;100707.66;;;16.37;66.07
15263;BME280;7733;51.554;13.590;2023-06-01T05:39:28;100696.81;;;16.45;66.20
15263;BME280;7733;51.554;13.590;2023-06-01T05:41:55;100714.34;;;16.21;66.89
15263;BME280;7733;51.554;13.590;2023-06-01T05:44:21;100711.09;;;16.39;66.41
15263;BME280;7733;51.554;13.590;2023-06-01T05:46:47;100712.41;;;16.28;66.63
15263;BME280;7733;51.554;13.590;2023-06-01T05:49:15;100712.13;;;16.35;66.45
15263;BME280;7733;51.554;13.590;2023-06-01T05:51:41;100707.81;;;16.59;65.60
15263;BME280;7733;51.554;13.590;2023-06-01T05:54:09;100704.88;;;16.68;65.28
15263;BME280;7733;51.554;13.590;2023-06-01T05:56:35;100704.34;;;16.57;66.53
15263;BME280;7733;51.554;13.590;2023-06-01T05:59:05;100699.88;;;16.86;65.87
15263;BME280;7733;51.554;13.590;2023-06-01T06:01:32;100707.88;;;17.09;65.05
15263;BME280;7733;51.554;13.590;2023-06-01T06:03:58;100707.53;;;16.68;66.10
15263;BME280;7733;51.554;13.590;2023-06-01T06:06:25;100706.84;;;16.88;65.45
15263;BME280;7733;51.554;13.590;2023-06-01T06:08:52;100704.03;;;16.93;65.70
15263;BME280;7733;51.554;13.590;2023-06-01T06:11:19;100702.03;;;17.24;65.07
15263;BME280;7733;51.554;13.590;2023-06-01T06:13:48;100701.53;;;17.13;65.74
15263;BME280;7733;51.554;13.590;2023-06-01T06:16:14;100707.19;;;17.04;66.61
15263;BME280;7733;51.554;13.590;2023-06-01T06:18:40;100699.03;;;17.33;65.62
15263;BME280;7733;51.554;13.590;2023-06-01T06:21:05;100694.28;;;17.18;65.92
15263;BME280;7733;51.554;13.590;2023-06-01T06:23:31;100697.28;;;17.09;66.04
15263;BME280;7733;51.554;13.590;2023-06-01T06:25:58;100694.41;;;17.15;66.24
15263;BME280;7733;51.554;13.590;2023-06-01T06:28:24;100692.34;;;17.23;66.40
15263;BME280;7733;51.554;13.590;2023-06-01T06:30:50;100693.59;;;17.37;66.08
15263;BME280;7733;51.554;13.590;2023-06-01T06:33:16;100684.72;;;17.14;66.60
15263;BME280;7733;51.554;13.590;2023-06-01T06:35:42;100685.09;;;17.52;65.77
15263;BME280;7733;51.554;13.590;2023-06-01T06:38:12;100678.25;;;17.46;65.99
15263;BME280;7733;51.554;13.590;2023-06-01T06:40:38;100678.13;;;17.73;65.15
15263;BME280;7733;51.554;13.590;2023-06-01T06:43:04;100677.91;;;18.01;65.10
15263;BME280;7733;51.554;13.590;2023-06-01T06:45:30;100671.50;;;18.28;64.31
15263;BME280;7733;51.554;13.590;2023-06-01T06:47:55;100667.78;;;18.52;63.57
15263;BME280;7733;51.554;13.590;2023-06-01T06:50:21;100670.84;;;18.43;62.55
15263;BME280;7733;51.554;13.590;2023-06-01T06:52:47;100672.03;;;18.36;63.40
15263;BME280;7733;51.554;13.590;2023-06-01T06:55:13;100670.72;;;18.46;63.42
15263;BME280;7733;51.554;13.590;2023-06-01T06:57:38;100672.88;;;18.37;60.02
15263;BME280;7733;51.554;13.590;2023-06-01T07:00:10;100674.69;;;18.36;59.74
15263;BME280;7733;51.554;13.590;2023-06-01T07:02:41;100674.56;;;18.60;60.52
15263;BME280;7733;51.554;13.590;2023-06-01T07:05:11;100672.50;;;18.68;58.94
15263;BME280;7733;51.554;13.590;2023-06-01T07:07:37;100668.38;;;18.81;58.13
15263;BME280;7733;51.554;13.590;2023-06-01T07:10:04;100680.13;;;18.75;58.68
15263;BME280;7733;51.554;13.590;2023-06-01T07:12:30;100673.22;;;18.71;57.25
15263;BME280;7733;51.554;13.590;2023-06-01T07:14:56;100673.94;;;18.75;57.64
15263;BME280;7733;51.554;13.590;2023-06-01T07:17:22;100673.13;;;19.13;57.40
15263;BME280;7733;51.554;13.590;2023-06-01T07:19:47;100668.91;;;19.09;57.67
15263;BME280;7733;51.554;13.590;2023-06-01T07:22:13;100675.97;;;18.90;56.71
15263;BME280;7733;51.554;13.590;2023-06-01T07:24:39;100670.63;;;18.90;56.50
15263;BME280;7733;51.554;13.590;2023-06-01T07:27:05;100669.03;;;19.06;54.89
15263;BME280;7733;51.554;13.590;2023-06-01T07:29:31;100663.16;;;19.19;54.64
15263;BME280;7733;51.554;13.590;2023-06-01T07:31:57;100666.75;;;19.18;54.58
15263;BME280;7733;51.554;13.590;2023-06-01T07:34:23;100659.41;;;19.43;54.12
15263;BME280;7733;51.554;13.590;2023-06-01T07:36:50;100651.81;;;19.34;53.71
15263;BME280;7733;51.554;13.590;2023-06-01T07:39:16;100655.31;;;19.55;54.50
15263;BME280;7733;51.554;13.590;2023-06-01T07:41:45;100660.41;;;19.59;53.07
15263;BME280;7733;51.554;13.590;2023-06-01T07:44:10;100650.03;;;19.53;52.86
15263;BME280;7733;51.554;13.590;2023-06-01T07:46:38;100658.75;;;19.57;52.40
15263;BME280;7733;51.554;13.590;2023-06-01T07:49:03;100647.03;;;19.61;53.54
15263;BME280;7733;51.554;13.590;2023-06-01T07:51:29;100633.84;;;19.95;51.83
15263;BME280;7733;51.554;13.590;2023-06-01T07:53:56;100649.78;;;20.14;52.76
15263;BME280;7733;51.554;13.590;2023-06-01T07:56:24;100644.16;;;19.84;52.93
15263;BME280;7733;51.554;13.590;2023-06-01T07:58:53;100649.94;;;20.11;52.45
15263;BME280;7733;51.554;13.590;2023-06-01T08:01:19;100640.03;;;19.96;52.07
15263;BME280;7733;51.554;13.590;2023-06-01T08:03:45;100641.34;;;20.23;52.01
15263;BME280;7733;51.554;13.590;2023-06-01T08:06:11;100636.31;;;20.34;52.41
15263;BME280;7733;51.554;13.590;2023-06-01T08:08:37;100644.81;;;20.77;52.45
15263;BME280;7733;51.554;13.590;2023-06-01T08:11:03;100642.31;;;20.74;51.54
15263;BME280;7733;51.554;13.590;2023-06-01T08:13:29;100639.75;;;20.55;51.89
15263;BME280;7733;51.554;13.590;2023-06-01T08:15:55;100638.53;;;20.78;52.01
15263;BME280;7733;51.554;13.590;2023-06-01T08:18:20;100633.72;;;21.02;51.53
15263;BME280;7733;51.554;13.590;2023-06-01T08:20:47;100626.53;;;21.20;51.02
15263;BME280;7733;51.554;13.590;2023-06-01T08:23:14;100638.25;;;21.17;51.17
15263;BME280;7733;51.554;13.590;2023-06-01T08:25:44;100638.84;;;20.89;51.11
15263;BME280;7733;51.554;13.590;2023-06-01T08:28:10;100639.47;;;20.94;50.39
15263;BME280;7733;51.554;13.590;2023-06-01T08:30:36;100637.06;;;21.23;49.31
15263;BME280;7733;51.554;13.590;2023-06-01T08:33:02;100633.91;;;21.32;50.60
15263;BME280;7733;51.554;13.590;2023-06-01T08:35:31;100635.97;;;21.27;49.40
15263;BME280;7733;51.554;13.590;2023-06-01T08:38:00;100633.94;;;21.15;50.50
15263;BME280;7733;51.554;13.590;2023-06-01T08:40:26;100632.91;;;21.17;49.60
15263;BME280;7733;51.554;13.590;2023-06-01T08:45:36;100623.00;;;21.19;49.41
15263;BME280;7733;51.554;13.590;2023-06-01T08:48:07;100618.63;;;21.51;48.52
15263;BME280;7733;51.554;13.590;2023-06-01T08:50:34;100630.59;;;21.44;47.94
15263;BME280;7733;51.554;13.590;2023-06-01T08:53:03;100621.63;;;21.45;47.63
15263;BME280;7733;51.554;13.590;2023-06-01T08:55:29;100616.97;;;21.33;48.95
15263;BME280;7733;51.554;13.590;2023-06-01T08:57:56;100613.94;;;21.39;48.93
15263;BME280;7733;51.554;13.590;2023-06-01T09:00:24;100613.28;;;21.67;48.45
15263;BME280;7733;51.554;13.590;2023-06-01T09:02:51;100617.47;;;22.03;48.63
15263;BME280;7733;51.554;13.590;2023-06-01T09:05:17;100606.44;;;21.93;48.66
15263;BME280;7733;51.554;13.590;2023-06-01T09:07:44;100611.47;;;21.83;47.02
15263;BME280;7733;51.554;13.590;2023-06-01T09:10:10;100604.22;;;21.70;47.91
15263;BME280;7733;51.554;13.590;2023-06-01T09:12:38;100604.97;;;22.03;46.81
15263;BME280;7733;51.554;13.590;2023-06-01T09:15:15;100610.06;;;22.38;48.27
15263;BME280;7733;51.554;13.590;2023-06-01T09:17:49;100600.09;;;22.56;46.03
15263;BME280;7733;51.554;13.590;2023-06-01T09:20:29;100606.16;;;22.73;46.37
15263;BME280;7733;51.554;13.590;2023-06-01T09:22:58;100601.81;;;22.87;46.92
15263;BME280;7733;51.554;13.590;2023-06-01T09:25:29;100592.44;;;22.94;46.05
15263;BME280;7733;51.554;13.590;2023-06-01T09:27:58;100596.13;;;22.63;45.69
15263;BME280;7733;51.554;13.590;2023-06-01T09:30:37;100597.84;;;22.64;46.38
15263;BME280;7733;51.554;13.590;2023-06-01T09:33:14;100595.00;;;22.37;46.37
15263;BME280;7733;51.554;13.590;2023-06-01T09:35:46;100590.16;;;22.58;45.70
15263;BME280;7733;51.554;13.590;2023-06-01T09:38:24;100600.34;;;22.37;46.69
15263;BME280;7733;51.554;13.590;2023-06-01T09:41:03;100583.88;;;22.59;44.63
15263;BME280;7733;51.554;13.590;2023-06-01T09:43:29;100587.34;;;22.75;44.73
15263;BME280;7733;51.554;13.590;2023-06-01T09:46:10;100576.34;;;22.65;43.90
15263;BME280;7733;51.554;13.590;2023-06-01T09:48:39;100577.88;;;22.69;43.98
15263;BME280;7733;51.554;13.590;2023-06-01T09:51:21;100569.53;;;23.04;44.27
15263;BME280;7733;51.554;13.590;2023-06-01T09:53:48;100574.94;;;23.02;43.43
15263;BME280;7733;51.554;13.590;2023-06-01T09:56:14;100569.38;;;22.77;43.97
15263;BME280;7733;51.554;13.590;2023-06-01T09:58:40;100561.97;;;23.11;43.50
15263;BME280;7733;51.554;13.590;2023-06-01T10:01:07;100565.63;;;23.36;43.83
15263;BME280;7733;51.554;13.590;2023-06-01T10:03:34;100557.81;;;23.19;44.05
15263;BME280;7733;51.554;13.590;2023-06-01T10:06:03;100562.38;;;23.46;43.42
15263;BME280;7733;51.554;13.590;2023-06-01T10:08:31;100547.72;;;23.92;43.09
15263;BME280;7733;51.554;13.590;2023-06-01T10:10:58;100566.91;;;23.17;43.24
15263;BME280;7733;51.554;13.590;2023-06-01T10:13:24;100553.88;;;23.80;43.71
15263;BME280;7733;51.554;13.590;2023-06-01T10:15:54;100548.28;;;24.10;42.85
15263;BME280;7733;51.554;13.590;2023-06-01T10:18:20;100556.22;;;23.72;43.65
15263;BME280;7733;51.554;13.590;2023-06-01T10:20:47;100562.56;;;23.57;43.06
15263;BME280;7733;51.554;13.590;2023-06-01T10:23:12;100560.44;;;23.62;43.43
15263;BME280;7733;51.554;13.590;2023-06-01T10:25:47;100556.75;;;23.77;43.24
15263;BME280;7733;51.554;13.590;2023-06-01T10:28:17;100550.50;;;24.31;41.54
15263;BME280;7733;51.554;13.590;2023-06-01T10:30:43;100541.50;;;23.92;43.26
15263;BME280;7733;51.554;13.590;2023-06-01T10:33:10;100550.97;;;24.10;42.38
15263;BME280;7733;51.554;13.590;2023-06-01T10:40:40;100536.91;;;23.67;41.64
15263;BME280;7733;51.554;13.590;2023-06-01T10:43:07;100537.78;;;23.80;40.02
15263;BME280;7733;51.554;13.590;2023-06-01T10:48:01;100530.69;;;23.66;38.73
15263;BME280;7733;51.554;13.590;2023-06-01T10:50:27;100535.00;;;23.82;38.20
15263;BME280;7733;51.554;13.590;2023-06-01T10:52:54;100534.53;;;23.89;38.20
15263;BME280;7733;51.554;13.590;2023-06-01T10:55:24;100535.69;;;23.85;38.83
15263;BME280;7733;51.554;13.590;2023-06-01T10:57:50;100537.78;;;24.20;39.93
15263;BME280;7733;51.554;13.590;2023-06-01T11:00:24;100524.22;;;24.23;39.88
15263;BME280;7733;51.554;13.590;2023-06-01T11:03:04;100541.53;;;24.05;37.94
15263;BME280;7733;51.554;13.590;2023-06-01T11:05:50;100530.03;;;24.42;37.06
15263;BME280;7733;51.554;13.590;2023-06-01T11:13:31;100520.16;;;24.55;38.22
15263;BME280;7733;51.554;13.590;2023-06-01T11:19:01;100509.06;;;24.98;38.70
15263;BME280;7733;51.554;13.590;2023-06-01T11:21:41;100512.38;;;25.27;37.97
15263;BME280;7733;51.554;13.590;2023-06-01T11:24:17;100506.78;;;25.17;37.10
15263;BME280;7733;51.554;13.590;2023-06-01T11:26:48;100509.94;;;25.11;38.22
15263;BME280;7733;51.554;13.590;2023-06-01T11:29:23;100499.38;;;25.21;37.96
15263;BME280;7733;51.554;13.590;2023-06-01T11:31:56;100494.25;;;25.42;38.20
15263;BME280;7733;51.554;13.590;2023-06-01T11:36:56;100491.59;;;24.80;34.39
15263;BME280;7733;51.554;13.590;2023-06-01T11:39:27;100504.16;;;25.05;35.45
15263;BME280;7733;51.554;13.590;2023-06-01T11:42:08;100490.50;;;24.82;34.88
15263;BME280;7733;51.554;13.590;2023-06-01T11:44:37;100491.69;;;24.78;36.32
15263;BME280;7733;51.554;13.590;2023-06-01T11:47:05;100495.63;;;24.98;35.18
15263;BME280;7733;51.554;13.590;2023-06-01T11:49:40;100491.22;;;24.48;34.90
15263;BME280;7733;51.554;13.590;2023-06-01T11:52:09;100487.97;;;24.68;33.80
15263;BME280;7733;51.554;13.590;2023-06-01T11:54:35;100483.69;;;24.66;34.15
15263;BME280;7733;51.554;13.590;2023-06-01T11:57:03;100482.97;;;25.13;33.48
15263;BME280;7733;51.554;13.590;2023-06-01T11:59:47;100476.47;;;25.28;34.93
15263;BME280;7733;51.554;13.590;2023-06-01T12:02:23;100466.34;;;24.82;35.33
15263;BME280;7733;51.554;13.590;2023-06-01T12:05:06;100467.38;;;24.69;35.92
15263;BME280;7733;51.554;13.590;2023-06-01T12:07:48;100470.16;;;24.54;35.63
15263;BME280;7733;51.554;13.590;2023-06-01T12:10:17;100468.41;;;25.04;35.59
15263;BME280;7733;51.554;13.590;2023-06-01T12:12:45;100466.59;;;25.29;35.07
15263;BME280;7733;51.554;13.590;2023-06-01T12:15:14;100465.81;;;24.90;33.89
15263;BME280;7733;51.554;13.590;2023-06-01T12:17:54;100456.97;;;25.13;35.55
15263;BME280;7733;51.554;13.590;2023-06-01T12:20:41;100453.28;;;25.27;34.99
15263;BME280;7733;51.554;13.590;2023-06-01T12:25:57;100453.91;;;25.31;35.80
15263;BME280;7733;51.554;13.590;2023-06-01T12:28:26;100446.81;;;25.30;36.15
15263;BME280;7733;51.554;13.590;2023-06-01T12:31:15;100442.78;;;25.59;36.24
15263;BME280;7733;51.554;13.590;2023-06-01T12:33:42;100438.03;;;25.63;36.57
15263;BME280;7733;51.554;13.590;2023-06-01T12:36:33;100440.13;;;25.83;36.69
15263;BME280;7733;51.554;13.590;2023-06-01T12:39:01;100437.78;;;25.78;36.16
15263;BME280;7733;51.554;13.590;2023-06-01T12:41:29;100436.41;;;25.49;36.99
15263;BME280;7733;51.554;13.590;2023-06-01T12:43:57;100436.78;;;25.68;36.49
15263;BME280;7733;51.554;13.590;2023-06-01T12:46:29;100430.94;;;25.27;36.27
15263;BME280;7733;51.554;13.590;2023-06-01T12:49:15;100429.00;;;25.88;35.98
15263;BME280;7733;51.554;13.590;2023-06-01T12:51:45;100422.38;;;25.45;36.31
15263;BME280;7733;51.554;13.590;2023-06-01T12:54:11;100419.25;;;25.87;36.52
15263;BME280;7733;51.554;13.590;2023-06-01T12:56:37;100421.19;;;25.96;37.30
15263;BME280;7733;51.554;13.590;2023-06-01T12:59:03;100424.81;;;25.72;37.14
15263;BME280;7733;51.554;13.590;2023-06-01T13:01:29;100413.47;;;26.37;36.42
15263;BME280;7733;51.554;13.590;2023-06-01T13:03:55;100408.03;;;26.04;36.27
15263;BME280;7733;51.554;13.590;2023-06-01T13:06:22;100414.00;;;25.96;36.62
15263;BME280;7733;51.554;13.590;2023-06-01T13:08:48;100416.84;;;26.17;35.85
15263;BME280;7733;51.554;13.590;2023-06-01T13:11:14;100420.22;;;25.97;37.30
15263;BME280;7733;51.554;13.590;2023-06-01T13:13:40;100414.28;;;26.16;37.15
15263;BME280;7733;51.554;13.590;2023-06-01T13:16:06;100406.69;;;26.21;36.36
15263;BME280;7733;51.554;13.590;2023-06-01T13:18:33;100408.56;;;26.43;35.43
15263;BME280;7733;51.554;13.590;2023-06-01T13:20:58;100406.94;;;26.18;33.76
15263;BME280;7733;51.554;13.590;2023-06-01T13:23:24;100408.25;;;26.01;33.86
15263;BME280;7733;51.554;13.590;2023-06-01T13:25:50;100403.41;;;26.28;34.93
15263;BME280;7733;51.554;13.590;2023-06-01T13:28:16;100403.16;;;26.31;34.46
15263;BME280;7733;51.554;13.590;2023-06-01T13:30:42;100397.84;;;25.96;34.57
15263;BME280;7733;51.554;13.590;2023-06-01T13:33:09;100407.94;;;26.28;34.23